5C5 weather

El Capitan Lodge Seaplane Base
Craig, Alaska, United States

Public forecast

Using degrees Fahrenheit for public forecast. Weather courtesy of forecast.io.

Closest aviation weather report (METAR) to El Capitan Lodge Seaplane Base

Closest report is Klawock Airport, 23.6 nm (43.6 km) SSE. Retrieved 2019/11/12 14:24 UTC (35 minutes ago):

PAKW 121424Z AUTO 00000KT 10SM SCT006 OVC016 09/08 A2962 RMK RAE22 P0001 T00940083 TSNO VIA AUTODIAL

Closest aviation forecast (TAF) to El Capitan Lodge Seaplane Base

Closest forecast is Klawock Airport, 23.6 nm (43.6 km) SSE. Retrieved 2019/11/12 12:42 UTC (2 hours ago):

TAF PAKW 121140Z 1212/1312 VRB05KT 5SM -RA BR OVC015 TEMPO 1212/1216 2SM RA BR OVC009 FM130300 19005KT P6SM -RA FEW015 BKN025 OVC050 AMD LTD TO CLD VIS AND WIND